sensor_id;sensor_type;location;lat;lon;timestamp;P1;durP1;ratioP1;P2;durP2;ratioP2
20711;SDS011;10517;50.742;4.224;2023-05-10T00:01:45;8.02;;;3.03;;
20711;SDS011;10517;50.742;4.224;2023-05-10T00:04:11;6.75;;;3.35;;
20711;SDS011;10517;50.742;4.224;2023-05-10T00:06:37;7.38;;;4.25;;
20711;SDS011;10517;50.742;4.224;2023-05-10T00:09:02;5.72;;;3.67;;
20711;SDS011;10517;50.742;4.224;2023-05-10T00:11:28;6.40;;;3.65;;
20711;SDS011;10517;50.742;4.224;2023-05-10T00:13:54;9.23;;;3.95;;
20711;SDS011;10517;50.742;4.224;2023-05-10T00:16:20;10.00;;;3.90;;
20711;SDS011;10517;50.742;4.224;2023-05-10T00:18:45;4.95;;;4.25;;
20711;SDS011;10517;50.742;4.224;2023-05-10T00:21:11;7.05;;;4.50;;
20711;SDS011;10517;50.742;4.224;2023-05-10T00:23:37;8.52;;;3.45;;
20711;SDS011;10517;50.742;4.224;2023-05-10T00:26:03;7.72;;;3.83;;
20711;SDS011;10517;50.742;4.224;2023-05-10T00:28:28;9.73;;;4.85;;
20711;SDS011;10517;50.742;4.224;2023-05-10T00:30:54;5.28;;;4.03;;
20711;SDS011;10517;50.742;4.224;2023-05-10T00:33:20;5.70;;;4.00;;
20711;SDS011;10517;50.742;4.224;2023-05-10T00:35:46;7.63;;;4.82;;
20711;SDS011;10517;50.742;4.224;2023-05-10T00:38:12;5.65;;;3.88;;
20711;SDS011;10517;50.742;4.224;2023-05-10T00:40:37;9.45;;;4.25;;
20711;SDS011;10517;50.742;4.224;2023-05-10T00:43:03;9.60;;;3.75;;
20711;SDS011;10517;50.742;4.224;2023-05-10T00:45:30;10.27;;;4.78;;
20711;SDS011;10517;50.742;4.224;2023-05-10T00:47:57;5.80;;;4.22;;
20711;SDS011;10517;50.742;4.224;2023-05-10T00:50:24;7.85;;;4.72;;
20711;SDS011;10517;50.742;4.224;2023-05-10T00:52:51;11.35;;;5.05;;
20711;SDS011;10517;50.742;4.224;2023-05-10T00:55:17;6.53;;;4.63;;
20711;SDS011;10517;50.742;4.224;2023-05-10T00:57:43;10.63;;;4.18;;
20711;SDS011;10517;50.742;4.224;2023-05-10T01:00:09;10.60;;;4.55;;
20711;SDS011;10517;50.742;4.224;2023-05-10T01:02:36;7.60;;;4.53;;
20711;SDS011;10517;50.742;4.224;2023-05-10T01:05:02;7.82;;;5.30;;
20711;SDS011;10517;50.742;4.224;2023-05-10T01:07:28;7.13;;;4.78;;
20711;SDS011;10517;50.742;4.224;2023-05-10T01:09:54;9.73;;;5.38;;
20711;SDS011;10517;50.742;4.224;2023-05-10T01:12:21;14.77;;;5.97;;
20711;SDS011;10517;50.742;4.224;2023-05-10T01:14:46;9.57;;;4.95;;
20711;SDS011;10517;50.742;4.224;2023-05-10T01:17:13;13.50;;;5.45;;
20711;SDS011;10517;50.742;4.224;2023-05-10T01:19:39;8.07;;;4.75;;
20711;SDS011;10517;50.742;4.224;2023-05-10T01:30:05;12.23;;;5.25;;
20711;SDS011;10517;50.742;4.224;2023-05-10T01:35:42;8.23;;;5.50;;
20711;SDS011;10517;50.742;4.224;2023-05-10T01:38:18;14.05;;;5.38;;
20711;SDS011;10517;50.742;4.224;2023-05-10T01:44:29;10.80;;;5.35;;
20711;SDS011;10517;50.742;4.224;2023-05-10T01:47:14;13.35;;;5.88;;
20711;SDS011;10517;50.742;4.224;2023-05-10T01:49:50;13.52;;;5.82;;
20711;SDS011;10517;50.742;4.224;2023-05-10T01:52:19;8.88;;;5.10;;
20711;SDS011;10517;50.742;4.224;2023-05-10T01:55:00;7.60;;;4.80;;
20711;SDS011;10517;50.742;4.224;2023-05-10T01:57:32;10.02;;;4.95;;
20711;SDS011;10517;50.742;4.224;2023-05-10T02:00:00;11.85;;;5.13;;
20711;SDS011;10517;50.742;4.224;2023-05-10T02:02:35;10.32;;;4.53;;
20711;SDS011;10517;50.742;4.224;2023-05-10T02:05:04;13.32;;;4.55;;
20711;SDS011;10517;50.742;4.224;2023-05-10T02:07:31;9.65;;;5.00;;
20711;SDS011;10517;50.742;4.224;2023-05-10T02:10:00;9.02;;;4.45;;
20711;SDS011;10517;50.742;4.224;2023-05-10T02:12:32;10.05;;;4.95;;
20711;SDS011;10517;50.742;4.224;2023-05-10T02:15:01;8.43;;;4.55;;
20711;SDS011;10517;50.742;4.224;2023-05-10T02:17:30;7.90;;;4.40;;
20711;SDS011;10517;50.742;4.224;2023-05-10T02:19:58;9.25;;;5.10;;
20711;SDS011;10517;50.742;4.224;2023-05-10T02:22:25;13.13;;;5.63;;
20711;SDS011;10517;50.742;4.224;2023-05-10T02:24:53;14.75;;;5.30;;
20711;SDS011;10517;50.742;4.224;2023-05-10T02:27:20;7.15;;;4.05;;
20711;SDS011;10517;50.742;4.224;2023-05-10T02:29:49;12.25;;;5.07;;
20711;SDS011;10517;50.742;4.224;2023-05-10T02:32:16;16.65;;;5.18;;
20711;SDS011;10517;50.742;4.224;2023-05-10T02:34:43;9.95;;;5.15;;
20711;SDS011;10517;50.742;4.224;2023-05-10T02:37:10;11.25;;;5.10;;
20711;SDS011;10517;50.742;4.224;2023-05-10T02:39:39;11.18;;;5.50;;
20711;SDS011;10517;50.742;4.224;2023-05-10T02:42:09;17.20;;;5.35;;
20711;SDS011;10517;50.742;4.224;2023-05-10T02:44:40;14.57;;;5.65;;
20711;SDS011;10517;50.742;4.224;2023-05-10T02:47:07;11.88;;;5.82;;
20711;SDS011;10517;50.742;4.224;2023-05-10T02:49:33;10.57;;;5.82;;
20711;SDS011;10517;50.742;4.224;2023-05-10T02:52:00;10.05;;;5.43;;
20711;SDS011;10517;50.742;4.224;2023-05-10T02:54:29;12.75;;;6.50;;
20711;SDS011;10517;50.742;4.224;2023-05-10T02:56:58;16.92;;;7.80;;
20711;SDS011;10517;50.742;4.224;2023-05-10T02:59:28;16.20;;;6.38;;
20711;SDS011;10517;50.742;4.224;2023-05-10T03:01:54;15.25;;;7.50;;
20711;SDS011;10517;50.742;4.224;2023-05-10T03:04:20;11.18;;;6.63;;
20711;SDS011;10517;50.742;4.224;2023-05-10T03:06:45;17.45;;;7.93;;
20711;SDS011;10517;50.742;4.224;2023-05-10T03:09:11;17.60;;;7.32;;
20711;SDS011;10517;50.742;4.224;2023-05-10T03:14:53;15.02;;;7.82;;
20711;SDS011;10517;50.742;4.224;2023-05-10T03:17:47;15.43;;;8.20;;
20711;SDS011;10517;50.742;4.224;2023-05-10T03:20:25;14.50;;;7.32;;
20711;SDS011;10517;50.742;4.224;2023-05-10T03:23:00;19.35;;;7.40;;
20711;SDS011;10517;50.742;4.224;2023-05-10T03:25:32;15.13;;;6.38;;
20711;SDS011;10517;50.742;4.224;2023-05-10T03:27:59;22.50;;;7.22;;
20711;SDS011;10517;50.742;4.224;2023-05-10T03:30:27;16.05;;;7.60;;
20711;SDS011;10517;50.742;4.224;2023-05-10T03:32:54;15.80;;;7.15;;
20711;SDS011;10517;50.742;4.224;2023-05-10T03:35:20;18.00;;;7.72;;
20711;SDS011;10517;50.742;4.224;2023-05-10T03:37:45;12.77;;;6.82;;
20711;SDS011;10517;50.742;4.224;2023-05-10T03:40:11;12.15;;;7.88;;
20711;SDS011;10517;50.742;4.224;2023-05-10T03:42:37;17.48;;;7.63;;
20711;SDS011;10517;50.742;4.224;2023-05-10T03:45:05;18.00;;;7.28;;
20711;SDS011;10517;50.742;4.224;2023-05-10T03:47:32;11.95;;;6.68;;
20711;SDS011;10517;50.742;4.224;2023-05-10T03:49:57;15.73;;;7.22;;
20711;SDS011;10517;50.742;4.224;2023-05-10T03:52:23;16.98;;;7.38;;
20711;SDS011;10517;50.742;4.224;2023-05-10T03:54:49;20.35;;;7.63;;
20711;SDS011;10517;50.742;4.224;2023-05-10T03:57:14;14.43;;;7.38;;
20711;SDS011;10517;50.742;4.224;2023-05-10T03:59:40;14.75;;;7.25;;
20711;SDS011;10517;50.742;4.224;2023-05-10T04:02:05;12.00;;;6.03;;
20711;SDS011;10517;50.742;4.224;2023-05-10T04:04:31;15.35;;;6.20;;
20711;SDS011;10517;50.742;4.224;2023-05-10T04:06:56;9.65;;;5.10;;
20711;SDS011;10517;50.742;4.224;2023-05-10T04:09:22;21.92;;;5.97;;
20711;SDS011;10517;50.742;4.224;2023-05-10T04:11:48;11.52;;;6.05;;
20711;SDS011;10517;50.742;4.224;2023-05-10T04:14:13;7.70;;;5.43;;
20711;SDS011;10517;50.742;4.224;2023-05-10T04:16:39;17.63;;;5.05;;
20711;SDS011;10517;50.742;4.224;2023-05-10T04:19:05;13.00;;;5.18;;
20711;SDS011;10517;50.742;4.224;2023-05-10T04:21:30;6.45;;;4.40;;
20711;SDS011;10517;50.742;4.224;2023-05-10T04:23:56;8.98;;;4.45;;
20711;SDS011;10517;50.742;4.224;2023-05-10T04:26:22;16.13;;;5.10;;
20711;SDS011;10517;50.742;4.224;2023-05-10T04:28:47;15.55;;;4.55;;
20711;SDS011;10517;50.742;4.224;2023-05-10T04:31:13;9.85;;;3.88;;
20711;SDS011;10517;50.742;4.224;2023-05-10T04:33:38;11.32;;;3.85;;
20711;SDS011;10517;50.742;4.224;2023-05-10T04:36:04;8.70;;;4.75;;
20711;SDS011;10517;50.742;4.224;2023-05-10T04:38:30;11.93;;;4.18;;
20711;SDS011;10517;50.742;4.224;2023-05-10T04:41:09;12.27;;;5.10;;
20711;SDS011;10517;50.742;4.224;2023-05-10T04:43:35;8.05;;;4.05;;
20711;SDS011;10517;50.742;4.224;2023-05-10T04:46:02;14.70;;;4.70;;
20711;SDS011;10517;50.742;4.224;2023-05-10T04:48:28;7.75;;;3.90;;
20711;SDS011;10517;50.742;4.224;2023-05-10T04:50:54;10.15;;;3.88;;
20711;SDS011;10517;50.742;4.224;2023-05-10T04:53:19;8.20;;;3.95;;
20711;SDS011;10517;50.742;4.224;2023-05-10T04:55:45;6.03;;;3.88;;
20711;SDS011;10517;50.742;4.224;2023-05-10T04:58:11;13.75;;;3.92;;
20711;SDS011;10517;50.742;4.224;2023-05-10T05:00:37;12.88;;;3.95;;
20711;SDS011;10517;50.742;4.224;2023-05-10T05:03:03;13.60;;;4.57;;
20711;SDS011;10517;50.742;4.224;2023-05-10T05:05:28;14.20;;;4.90;;
20711;SDS011;10517;50.742;4.224;2023-05-10T05:07:54;13.52;;;5.00;;
20711;SDS011;10517;50.742;4.224;2023-05-10T05:10:19;5.78;;;3.67;;
20711;SDS011;10517;50.742;4.224;2023-05-10T05:12:45;9.15;;;3.97;;
20711;SDS011;10517;50.742;4.224;2023-05-10T05:15:11;9.38;;;4.65;;
20711;SDS011;10517;50.742;4.224;2023-05-10T05:17:36;9.20;;;3.58;;
20711;SDS011;10517;50.742;4.224;2023-05-10T05:20:02;13.10;;;3.97;;
20711;SDS011;10517;50.742;4.224;2023-05-10T05:22:28;7.63;;;3.80;;
20711;SDS011;10517;50.742;4.224;2023-05-10T05:24:54;7.05;;;4.53;;
20711;SDS011;10517;50.742;4.224;2023-05-10T05:27:20;11.07;;;3.85;;
20711;SDS011;10517;50.742;4.224;2023-05-10T05:29:49;4.30;;;2.55;;
20711;SDS011;10517;50.742;4.224;2023-05-10T05:32:24;5.65;;;3.05;;
20711;SDS011;10517;50.742;4.224;2023-05-10T05:34:50;6.85;;;2.72;;
20711;SDS011;10517;50.742;4.224;2023-05-10T05:37:17;6.50;;;3.08;;
20711;SDS011;10517;50.742;4.224;2023-05-10T05:39:44;4.32;;;2.72;;
20711;SDS011;10517;50.742;4.224;2023-05-10T05:42:10;4.40;;;3.10;;
20711;SDS011;10517;50.742;4.224;2023-05-10T05:44:37;10.52;;;3.03;;
20711;SDS011;10517;50.742;4.224;2023-05-10T05:47:03;4.38;;;2.80;;
20711;SDS011;10517;50.742;4.224;2023-05-10T05:49:29;7.03;;;3.28;;
20711;SDS011;10517;50.742;4.224;2023-05-10T05:51:58;9.93;;;3.42;;
20711;SDS011;10517;50.742;4.224;2023-05-10T05:54:28;5.07;;;3.20;;
20711;SDS011;10517;50.742;4.224;2023-05-10T05:56:55;9.63;;;3.30;;
20711;SDS011;10517;50.742;4.224;2023-05-10T05:59:27;7.13;;;3.45;;
20711;SDS011;10517;50.742;4.224;2023-05-10T06:01:53;5.78;;;3.28;;
20711;SDS011;10517;50.742;4.224;2023-05-10T06:04:19;5.65;;;3.55;;
20711;SDS011;10517;50.742;4.224;2023-05-10T06:06:44;8.77;;;4.32;;
20711;SDS011;10517;50.742;4.224;2023-05-10T06:09:10;5.07;;;2.80;;
20711;SDS011;10517;50.742;4.224;2023-05-10T06:11:36;4.30;;;2.90;;
20711;SDS011;10517;50.742;4.224;2023-05-10T06:14:02;3.15;;;2.53;;
20711;SDS011;10517;50.742;4.224;2023-05-10T06:16:33;4.70;;;2.70;;
20711;SDS011;10517;50.742;4.224;2023-05-10T06:18:59;3.47;;;2.35;;
20711;SDS011;10517;50.742;4.224;2023-05-10T06:21:24;4.55;;;2.60;;
20711;SDS011;10517;50.742;4.224;2023-05-10T06:23:50;2.28;;;2.05;;
20711;SDS011;10517;50.742;4.224;2023-05-10T06:26:16;6.20;;;2.35;;
20711;SDS011;10517;50.742;4.224;2023-05-10T06:28:41;4.07;;;2.25;;
20711;SDS011;10517;50.742;4.224;2023-05-10T06:31:07;2.70;;;2.50;;
20711;SDS011;10517;50.742;4.224;2023-05-10T06:33:33;2.35;;;2.00;;
20711;SDS011;10517;50.742;4.224;2023-05-10T06:35:59;4.68;;;2.20;;
20711;SDS011;10517;50.742;4.224;2023-05-10T06:38:25;8.30;;;2.45;;
20711;SDS011;10517;50.742;4.224;2023-05-10T06:40:50;3.00;;;2.28;;
20711;SDS011;10517;50.742;4.224;2023-05-10T06:43:16;8.35;;;2.63;;
20711;SDS011;10517;50.742;4.224;2023-05-10T06:45:42;2.88;;;2.40;;
20711;SDS011;10517;50.742;4.224;2023-05-10T06:48:08;4.72;;;2.28;;
20711;SDS011;10517;50.742;4.224;2023-05-10T06:50:33;2.70;;;2.42;;
20711;SDS011;10517;50.742;4.224;2023-05-10T06:52:59;3.10;;;2.60;;
20711;SDS011;10517;50.742;4.224;2023-05-10T06:55:26;2.38;;;2.00;;
20711;SDS011;10517;50.742;4.224;2023-05-10T06:57:52;4.25;;;2.22;;
20711;SDS011;10517;50.742;4.224;2023-05-10T07:00:19;3.70;;;2.45;;
20711;SDS011;10517;50.742;4.224;2023-05-10T07:02:45;5.78;;;2.10;;
20711;SDS011;10517;50.742;4.224;2023-05-10T07:05:10;2.60;;;2.20;;
20711;SDS011;10517;50.742;4.224;2023-05-10T07:07:37;6.47;;;2.15;;
20711;SDS011;10517;50.742;4.224;2023-05-10T07:10:03;6.10;;;2.45;;
20711;SDS011;10517;50.742;4.224;2023-05-10T07:12:29;8.52;;;2.83;;
20711;SDS011;10517;50.742;4.224;2023-05-10T07:14:54;1.98;;;1.80;;
20711;SDS011;10517;50.742;4.224;2023-05-10T07:17:20;3.70;;;2.10;;
20711;SDS011;10517;50.742;4.224;2023-05-10T07:19:46;3.42;;;1.85;;
20711;SDS011;10517;50.742;4.224;2023-05-10T07:22:11;3.97;;;1.80;;
20711;SDS011;10517;50.742;4.224;2023-05-10T07:24:37;1.95;;;1.65;;
20711;SDS011;10517;50.742;4.224;2023-05-10T07:27:04;1.90;;;1.52;;
20711;SDS011;10517;50.742;4.224;2023-05-10T07:29:30;3.25;;;1.70;;
20711;SDS011;10517;50.742;4.224;2023-05-10T07:31:55;4.47;;;1.48;;
20711;SDS011;10517;50.742;4.224;2023-05-10T07:34:21;1.98;;;1.63;;
20711;SDS011;10517;50.742;4.224;2023-05-10T07:36:47;2.85;;;1.55;;
20711;SDS011;10517;50.742;4.224;2023-05-10T07:39:12;3.05;;;1.60;;
20711;SDS011;10517;50.742;4.224;2023-05-10T07:41:38;2.05;;;1.63;;
20711;SDS011;10517;50.742;4.224;2023-05-10T07:44:04;3.78;;;1.50;;
20711;SDS011;10517;50.742;4.224;2023-05-10T07:46:31;3.15;;;1.50;;
20711;SDS011;10517;50.742;4.224;2023-05-10T07:48:56;1.10;;;1.00;;
20711;SDS011;10517;50.742;4.224;2023-05-10T07:51:22;2.95;;;1.10;;
20711;SDS011;10517;50.742;4.224;2023-05-10T07:53:47;1.98;;;1.13;;
20711;SDS011;10517;50.742;4.224;2023-05-10T07:56:29;1.95;;;1.35;;
20711;SDS011;10517;50.742;4.224;2023-05-10T07:58:56;1.95;;;1.17;;
20711;SDS011;10517;50.742;4.224;2023-05-10T08:01:26;3.15;;;1.08;;
20711;SDS011;10517;50.742;4.224;2023-05-10T08:03:55;1.70;;;1.17;;
20711;SDS011;10517;50.742;4.224;2023-05-10T08:06:20;0.80;;;0.80;;
20711;SDS011;10517;50.742;4.224;2023-05-10T08:08:47;0.93;;;0.82;;
20711;SDS011;10517;50.742;4.224;2023-05-10T08:11:18;1.58;;;1.17;;
20711;SDS011;10517;50.742;4.224;2023-05-10T08:13:45;3.78;;;1.70;;
20711;SDS011;10517;50.742;4.224;2023-05-10T08:16:11;1.10;;;1.00;;
20711;SDS011;10517;50.742;4.224;2023-05-10T08:18:37;1.00;;;1.00;;
20711;SDS011;10517;50.742;4.224;2023-05-10T08:21:04;1.27;;;0.90;;
20711;SDS011;10517;50.742;4.224;2023-05-10T08:23:30;0.88;;;0.88;;
20711;SDS011;10517;50.742;4.224;2023-05-10T08:25:56;1.55;;;0.98;;
20711;SDS011;10517;50.742;4.224;2023-05-10T08:28:21;2.00;;;1.25;;
20711;SDS011;10517;50.742;4.224;2023-05-10T08:30:47;0.80;;;0.80;;
20711;SDS011;10517;50.742;4.224;2023-05-10T08:33:12;0.93;;;0.85;;
20711;SDS011;10517;50.742;4.224;2023-05-10T08:35:38;1.08;;;1.02;;
20711;SDS011;10517;50.742;4.224;2023-05-10T08:38:04;6.90;;;1.52;;
20711;SDS011;10517;50.742;4.224;2023-05-10T08:40:30;1.52;;;1.42;;
20711;SDS011;10517;50.742;4.224;2023-05-10T08:42:58;1.50;;;1.40;;
20711;SDS011;10517;50.742;4.224;2023-05-10T08:45:30;1.40;;;1.27;;
20711;SDS011;10517;50.742;4.224;2023-05-10T08:47:59;1.70;;;1.30;;
20711;SDS011;10517;50.742;4.224;2023-05-10T08:50:30;1.65;;;1.40;;
20711;SDS011;10517;50.742;4.224;2023-05-10T08:52:57;2.60;;;1.60;;
20711;SDS011;10517;50.742;4.224;2023-05-10T08:55:27;3.10;;;2.55;;
20711;SDS011;10517;50.742;4.224;2023-05-10T08:57:53;2.63;;;1.63;;
20711;SDS011;10517;50.742;4.224;2023-05-10T09:00:19;2.05;;;1.73;;
20711;SDS011;10517;50.742;4.224;2023-05-10T09:02:45;2.05;;;1.55;;
20711;SDS011;10517;50.742;4.224;2023-05-10T09:05:11;4.55;;;1.83;;
20711;SDS011;10517;50.742;4.224;2023-05-10T09:07:37;5.85;;;2.33;;
20711;SDS011;10517;50.742;4.224;2023-05-10T09:10:04;2.55;;;2.08;;
20711;SDS011;10517;50.742;4.224;2023-05-10T09:12:30;3.95;;;1.90;;
20711;SDS011;10517;50.742;4.224;2023-05-10T09:14:56;2.97;;;2.40;;
20711;SDS011;10517;50.742;4.224;2023-05-10T09:17:24;2.20;;;2.00;;
20711;SDS011;10517;50.742;4.224;2023-05-10T09:20:10;3.03;;;2.22;;
20711;SDS011;10517;50.742;4.224;2023-05-10T09:22:35;2.40;;;1.98;;
20711;SDS011;10517;50.742;4.224;2023-05-10T09:25:13;2.53;;;1.60;;
20711;SDS011;10517;50.742;4.224;2023-05-10T09:27:40;2.15;;;1.77;;
20711;SDS011;10517;50.742;4.224;2023-05-10T09:30:09;4.22;;;2.28;;
20711;SDS011;10517;50.742;4.224;2023-05-10T09:32:38;2.00;;;1.80;;
20711;SDS011;10517;50.742;4.224;2023-05-10T09:35:08;3.30;;;2.35;;
20711;SDS011;10517;50.742;4.224;2023-05-10T09:37:39;1.90;;;1.80;;
20711;SDS011;10517;50.742;4.224;2023-05-10T09:40:11;3.92;;;1.50;;
20711;SDS011;10517;50.742;4.224;2023-05-10T09:43:29;3.53;;;1.95;;
20711;SDS011;10517;50.742;4.224;2023-05-10T09:45:35;1.95;;;1.63;;
20711;SDS011;10517;50.742;4.224;2023-05-10T09:48:02;2.22;;;1.83;;
20711;SDS011;10517;50.742;4.224;2023-05-10T09:50:28;2.42;;;2.03;;
20711;SDS011;10517;50.742;4.224;2023-05-10T09:55:49;2.28;;;1.40;;
20711;SDS011;10517;50.742;4.224;2023-05-10T09:58:15;1.48;;;1.20;;
20711;SDS011;10517;50.742;4.224;2023-05-10T10:00:42;1.58;;;1.48;;
20711;SDS011;10517;50.742;4.224;2023-05-10T10:03:12;3.42;;;1.17;;
20711;SDS011;10517;50.742;4.224;2023-05-10T10:05:42;1.52;;;1.13;;
20711;SDS011;10517;50.742;4.224;2023-05-10T10:08:09;1.30;;;1.10;;
20711;SDS011;10517;50.742;4.224;2023-05-10T10:10:35;1.73;;;1.30;;
20711;SDS011;10517;50.742;4.224;2023-05-10T10:13:01;1.38;;;1.08;;
20711;SDS011;10517;50.742;4.224;2023-05-10T10:15:27;2.83;;;1.20;;
20711;SDS011;10517;50.742;4.224;2023-05-10T10:17:53;3.13;;;1.38;;
20711;SDS011;10517;50.742;4.224;2023-05-10T10:20:20;2.08;;;1.13;;
20711;SDS011;10517;50.742;4.224;2023-05-10T10:22:46;2.17;;;1.63;;
20711;SDS011;10517;50.742;4.224;2023-05-10T10:25:14;1.48;;;1.33;;
20711;SDS011;10517;50.742;4.224;2023-05-10T10:35:42;2.83;;;1.60;;
20711;SDS011;10517;50.742;4.224;2023-05-10T10:38:10;3.83;;;1.98;;
20711;SDS011;10517;50.742;4.224;2023-05-10T10:40:38;4.97;;;2.53;;
20711;SDS011;10517;50.742;4.224;2023-05-10T10:46:10;4.05;;;2.22;;
20711;SDS011;10517;50.742;4.224;2023-05-10T10:48:40;4.05;;;2.50;;
20711;SDS011;10517;50.742;4.224;2023-05-10T10:51:07;4.03;;;2.38;;
20711;SDS011;10517;50.742;4.224;2023-05-10T10:53:32;3.63;;;2.45;;
20711;SDS011;10517;50.742;4.224;2023-05-10T10:56:11;5.18;;;2.40;;
20711;SDS011;10517;50.742;4.224;2023-05-10T10:58:38;4.82;;;2.60;;
20711;SDS011;10517;50.742;4.224;2023-05-10T11:01:12;4.43;;;2.75;;
20711;SDS011;10517;50.742;4.224;2023-05-10T11:03:55;4.72;;;2.60;;
20711;SDS011;10517;50.742;4.224;2023-05-10T11:06:31;3.50;;;2.53;;
20711;SDS011;10517;50.742;4.224;2023-05-10T11:08:57;3.70;;;2.40;;
20711;SDS011;10517;50.742;4.224;2023-05-10T11:11:24;2.75;;;2.38;;
20711;SDS011;10517;50.742;4.224;2023-05-10T11:13:50;5.90;;;2.78;;
20711;SDS011;10517;50.742;4.224;2023-05-10T11:16:20;4.35;;;2.85;;
20711;SDS011;10517;50.742;4.224;2023-05-10T11:18:58;3.58;;;2.38;;
20711;SDS011;10517;50.742;4.224;2023-05-10T11:21:27;3.00;;;2.35;;
20711;SDS011;10517;50.742;4.224;2023-05-10T11:23:54;3.97;;;2.83;;
20711;SDS011;10517;50.742;4.224;2023-05-10T11:26:22;4.43;;;2.05;;
20711;SDS011;10517;50.742;4.224;2023-05-10T11:28:52;3.70;;;2.80;;
20711;SDS011;10517;50.742;4.224;2023-05-10T11:31:23;3.53;;;2.92;;
20711;SDS011;10517;50.742;4.224;2023-05-10T11:33:55;3.20;;;2.20;;
20711;SDS011;10517;50.742;4.224;2023-05-10T11:38:52;2.65;;;2.38;;
20711;SDS011;10517;50.742;4.224;2023-05-10T11:41:19;4.25;;;2.80;;
20711;SDS011;10517;50.742;4.224;2023-05-10T11:43:47;4.07;;;2.65;;
20711;SDS011;10517;50.742;4.224;2023-05-10T11:46:15;3.97;;;2.10;;
20711;SDS011;10517;50.742;4.224;2023-05-10T11:48:43;3.53;;;2.22;;
20711;SDS011;10517;50.742;4.224;2023-05-10T11:51:09;3.45;;;2.00;;
20711;SDS011;10517;50.742;4.224;2023-05-10T11:53:35;3.50;;;2.20;;
20711;SDS011;10517;50.742;4.224;2023-05-10T11:56:06;3.92;;;2.80;;
20711;SDS011;10517;50.742;4.224;2023-05-10T11:58:33;3.40;;;2.13;;
20711;SDS011;10517;50.742;4.224;2023-05-10T12:01:00;4.13;;;2.55;;
20711;SDS011;10517;50.742;4.224;2023-05-10T12:03:26;3.58;;;2.15;;
20711;SDS011;10517;50.742;4.224;2023-05-10T12:05:53;2.75;;;2.00;;
20711;SDS011;10517;50.742;4.224;2023-05-10T12:08:20;2.25;;;2.05;;
20711;SDS011;10517;50.742;4.224;2023-05-10T12:10:51;3.30;;;2.55;;
20711;SDS011;10517;50.742;4.224;2023-05-10T12:13:19;4.35;;;2.42;;
20711;SDS011;10517;50.742;4.224;2023-05-10T12:15:46;2.67;;;2.13;;
20711;SDS011;10517;50.742;4.224;2023-05-10T12:18:12;4.70;;;2.47;;
20711;SDS011;10517;50.742;4.224;2023-05-10T12:20:39;4.22;;;2.53;;
20711;SDS011;10517;50.742;4.224;2023-05-10T12:23:05;3.15;;;2.10;;
20711;SDS011;10517;50.742;4.224;2023-05-10T12:25:33;4.80;;;2.42;;
20711;SDS011;10517;50.742;4.224;2023-05-10T12:28:00;6.70;;;2.17;;
20711;SDS011;10517;50.742;4.224;2023-05-10T12:30:29;2.92;;;1.90;;
20711;SDS011;10517;50.742;4.224;2023-05-10T12:33:07;2.97;;;2.20;;
20711;SDS011;10517;50.742;4.224;2023-05-10T12:35:43;3.60;;;2.35;;
20711;SDS011;10517;50.742;4.224;2023-05-10T12:41:11;2.75;;;2.42;;
20711;SDS011;10517;50.742;4.224;2023-05-10T12:43:37;3.42;;;2.80;;
20711;SDS011;10517;50.742;4.224;2023-05-10T12:46:11;2.67;;;2.17;;
20711;SDS011;10517;50.742;4.224;2023-05-10T12:48:38;3.03;;;2.13;;
20711;SDS011;10517;50.742;4.224;2023-05-10T12:51:05;2.80;;;2.50;;
20711;SDS011;10517;50.742;4.224;2023-05-10T12:53:34;5.30;;;2.50;;
20711;SDS011;10517;50.742;4.224;2023-05-10T12:56:00;4.80;;;2.72;;
20711;SDS011;10517;50.742;4.224;2023-05-10T12:58:26;6.60;;;2.50;;
20711;SDS011;10517;50.742;4.224;2023-05-10T13:00:51;4.07;;;2.83;;
20711;SDS011;10517;50.742;4.224;2023-05-10T13:03:17;6.65;;;2.72;;
20711;SDS011;10517;50.742;4.224;2023-05-10T13:05:43;4.30;;;2.50;;
20711;SDS011;10517;50.742;4.224;2023-05-10T13:08:09;5.68;;;2.90;;
20711;SDS011;10517;50.742;4.224;2023-05-10T13:10:35;3.05;;;2.50;;
20711;SDS011;10517;50.742;4.224;2023-05-10T13:13:01;3.63;;;2.90;;
20711;SDS011;10517;50.742;4.224;2023-05-10T13:15:26;4.57;;;3.20;;
20711;SDS011;10517;50.742;4.224;2023-05-10T13:17:52;4.18;;;2.28;;
20711;SDS011;10517;50.742;4.224;2023-05-10T13:20:18;4.30;;;3.20;;
20711;SDS011;10517;50.742;4.224;2023-05-10T13:22:44;3.72;;;2.58;;
20711;SDS011;10517;50.742;4.224;2023-05-10T13:25:10;3.88;;;2.65;;
20711;SDS011;10517;50.742;4.224;2023-05-10T13:27:36;3.85;;;2.75;;
20711;SDS011;10517;50.742;4.224;2023-05-10T13:30:05;5.55;;;2.90;;
20711;SDS011;10517;50.742;4.224;2023-05-10T13:32:32;4.65;;;3.25;;
20711;SDS011;10517;50.742;4.224;2023-05-10T13:34:58;3.55;;;2.85;;
20711;SDS011;10517;50.742;4.224;2023-05-10T13:37:24;3.03;;;2.72;;
20711;SDS011;10517;50.742;4.224;2023-05-10T13:39:49;5.38;;;2.97;;
20711;SDS011;10517;50.742;4.224;2023-05-10T13:42:15;5.10;;;3.10;;
20711;SDS011;10517;50.742;4.224;2023-05-10T13:44:40;5.32;;;3.45;;
20711;SDS011;10517;50.742;4.224;2023-05-10T13:47:06;7.30;;;4.18;;
20711;SDS011;10517;50.742;4.224;2023-05-10T13:49:32;3.60;;;3.20;;
20711;SDS011;10517;50.742;4.224;2023-05-10T13:51:58;4.55;;;3.30;;
20711;SDS011;10517;50.742;4.224;2023-05-10T13:54:30;6.20;;;3.80;;
20711;SDS011;10517;50.742;4.224;2023-05-10T13:56:56;5.72;;;3.45;;
20711;SDS011;10517;50.742;4.224;2023-05-10T13:59:22;4.85;;;3.92;;
20711;SDS011;10517;50.742;4.224;2023-05-10T14:01:48;3.60;;;3.20;;
20711;SDS011;10517;50.742;4.224;2023-05-10T14:04:13;8.23;;;4.07;;
20711;SDS011;10517;50.742;4.224;2023-05-10T14:06:39;6.95;;;4.18;;
20711;SDS011;10517;50.742;4.224;2023-05-10T14:09:05;7.07;;;3.80;;
20711;SDS011;10517;50.742;4.224;2023-05-10T14:11:30;5.03;;;3.97;;
20711;SDS011;10517;50.742;4.224;2023-05-10T14:13:56;6.53;;;4.03;;
20711;SDS011;10517;50.742;4.224;2023-05-10T14:16:21;7.70;;;3.95;;
20711;SDS011;10517;50.742;4.224;2023-05-10T14:18:47;5.75;;;4.57;;
20711;SDS011;10517;50.742;4.224;2023-05-10T14:21:13;6.35;;;3.97;;
20711;SDS011;10517;50.742;4.224;2023-05-10T14:23:38;5.88;;;4.18;;
20711;SDS011;10517;50.742;4.224;2023-05-10T14:26:04;5.95;;;5.07;;
20711;SDS011;10517;50.742;4.224;2023-05-10T14:28:30;7.03;;;4.68;;
20711;SDS011;10517;50.742;4.224;2023-05-10T14:30:56;7.53;;;4.65;;
20711;SDS011;10517;50.742;4.224;2023-05-10T14:33:21;7.47;;;5.13;;
20711;SDS011;10517;50.742;4.224;2023-05-10T14:35:47;7.57;;;4.80;;
20711;SDS011;10517;50.742;4.224;2023-05-10T14:38:13;12.90;;;5.20;;
20711;SDS011;10517;50.742;4.224;2023-05-10T14:40:39;8.10;;;4.95;;
20711;SDS011;10517;50.742;4.224;2023-05-10T14:43:05;8.27;;;5.03;;
20711;SDS011;10517;50.742;4.224;2023-05-10T14:45:31;7.90;;;4.90;;
20711;SDS011;10517;50.742;4.224;2023-05-10T14:47:56;11.95;;;6.10;;
20711;SDS011;10517;50.742;4.224;2023-05-10T14:50:22;9.80;;;5.20;;
20711;SDS011;10517;50.742;4.224;2023-05-10T14:52:48;9.48;;;5.80;;
20711;SDS011;10517;50.742;4.224;2023-05-10T14:55:15;8.07;;;5.18;;
20711;SDS011;10517;50.742;4.224;2023-05-10T14:57:41;9.48;;;5.10;;
20711;SDS011;10517;50.742;4.224;2023-05-10T15:00:07;12.07;;;5.60;;
20711;SDS011;10517;50.742;4.224;2023-05-10T15:02:34;7.05;;;4.82;;
20711;SDS011;10517;50.742;4.224;2023-05-10T15:04:59;7.68;;;4.15;;
20711;SDS011;10517;50.742;4.224;2023-05-10T15:07:25;7.25;;;4.30;;
20711;SDS011;10517;50.742;4.224;2023-05-10T15:09:51;10.07;;;4.70;;
20711;SDS011;10517;50.742;4.224;2023-05-10T15:12:17;8.10;;;4.60;;
20711;SDS011;10517;50.742;4.224;2023-05-10T15:14:43;7.47;;;4.40;;
20711;SDS011;10517;50.742;4.224;2023-05-10T15:17:09;13.07;;;4.45;;
20711;SDS011;10517;50.742;4.224;2023-05-10T15:19:35;6.63;;;4.22;;
20711;SDS011;10517;50.742;4.224;2023-05-10T15:22:01;7.28;;;5.00;;
20711;SDS011;10517;50.742;4.224;2023-05-10T15:24:28;9.52;;;5.13;;